createdAt,value
2023-01-22T00:01:38.723Z,89.77
2023-01-22T00:06:44.172Z,89.85
2023-01-22T00:11:51.187Z,89.69
2023-01-22T00:16:55.357Z,89.78
2023-01-22T00:22:00.792Z,90.21
2023-01-22T00:27:04.339Z,89.99
2023-01-22T00:32:07.343Z,89.96
2023-01-22T00:37:11.292Z,90.01
2023-01-22T00:42:17.046Z,90.06
2023-01-22T00:47:22.666Z,90.06
2023-01-22T00:52:26.232Z,89.94
2023-01-22T00:57:30.303Z,90.48
2023-01-22T01:02:55.387Z,89.97
2023-01-22T01:08:00.088Z,90.27
2023-01-22T01:13:05.077Z,89.90
2023-01-22T01:18:14.747Z,89.74
2023-01-22T01:23:17.413Z,90.18
2023-01-22T01:28:20.985Z,89.99
2023-01-22T01:33:24.398Z,89.79
2023-01-22T01:38:27.040Z,90.22
2023-01-22T01:43:30.059Z,90.48
2023-01-22T01:48:43.575Z,90.24
2023-01-22T01:53:48.304Z,90.32
2023-01-22T01:58:56.563Z,90.00
2023-01-22T02:04:01.846Z,90.17
2023-01-22T02:09:04.552Z,89.70
2023-01-22T02:14:21.355Z,89.75
2023-01-22T02:19:25.034Z,90.35
2023-01-22T02:24:31.328Z,90.34
2023-01-22T02:29:34.479Z,90.37
2023-01-22T02:34:37.570Z,90.05
2023-01-22T02:39:40.443Z,90.32
2023-01-22T02:44:44.676Z,90.29
2023-01-22T02:49:47.940Z,90.42
2023-01-22T02:54:51.057Z,90.44
2023-01-22T02:59:53.891Z,90.51
2023-01-22T03:05:03.501Z,90.66
2023-01-22T03:10:06.945Z,90.66
2023-01-22T03:15:28.031Z,90.63
2023-01-22T03:20:49.354Z,90.25
2023-01-22T03:25:56.388Z,90.97
2023-01-22T03:30:59.517Z,90.72
2023-01-22T03:36:09.432Z,90.49
2023-01-22T03:41:15.945Z,90.88
2023-01-22T03:46:21.238Z,90.91
2023-01-22T03:51:25.495Z,90.73
2023-01-22T03:56:28.568Z,90.32
2023-01-22T04:01:32.340Z,90.70
2023-01-22T04:06:35.442Z,90.83
2023-01-22T04:11:38.412Z,90.89
2023-01-22T04:16:41.681Z,90.89
2023-01-22T04:21:44.479Z,91.13
2023-01-22T04:26:47.550Z,90.94
2023-01-22T04:31:50.942Z,90.50
2023-01-22T04:36:54.385Z,91.13
2023-01-22T04:41:56.617Z,91.10
2023-01-22T04:46:59.615Z,91.10
2023-01-22T04:52:02.352Z,91.12
2023-01-22T04:57:05.313Z,90.98
2023-01-22T05:02:08.638Z,91.02
2023-01-22T05:07:11.634Z,91.03
2023-01-22T05:12:14.458Z,90.93
2023-01-22T05:17:18.047Z,90.83
2023-01-22T05:22:21.113Z,91.04
2023-01-22T05:27:23.840Z,91.15
2023-01-22T05:32:27.205Z,90.80
2023-01-22T05:37:31.786Z,90.77
2023-01-22T05:42:34.763Z,90.96
2023-01-22T05:47:38.275Z,90.84
2023-01-22T05:52:41.946Z,90.65
2023-01-22T05:57:46.634Z,90.51
2023-01-22T06:02:49.836Z,90.82
2023-01-22T06:07:54.564Z,90.82
2023-01-22T06:12:57.315Z,90.96
2023-01-22T06:18:01.321Z,90.73
2023-01-22T06:23:05.667Z,90.85
2023-01-22T06:28:08.264Z,91.00
2023-01-22T06:33:10.885Z,90.67
2023-01-22T06:38:14.094Z,90.79
2023-01-22T06:43:17.275Z,90.95
2023-01-22T06:48:20.792Z,91.16
2023-01-22T06:53:27.931Z,90.92
2023-01-22T06:58:30.907Z,91.15
2023-01-22T07:03:33.875Z,91.21
2023-01-22T07:08:37.066Z,90.63
2023-01-22T07:13:39.648Z,90.70
2023-01-22T07:18:43.116Z,91.03
2023-01-22T07:23:46.335Z,91.06
2023-01-22T07:28:49.211Z,90.75
2023-01-22T07:33:51.936Z,90.72
2023-01-22T07:38:54.326Z,90.62
2023-01-22T07:43:57.465Z,90.75
2023-01-22T07:48:59.516Z,90.54
2023-01-22T07:54:01.592Z,90.71
2023-01-22T07:59:09.504Z,90.81
2023-01-22T08:04:11.985Z,90.82
2023-01-22T08:09:15.773Z,90.74
2023-01-22T08:14:18.159Z,90.68
2023-01-22T08:19:20.934Z,90.53
2023-01-22T08:24:23.407Z,90.86
2023-01-22T08:29:25.894Z,90.42
2023-01-22T08:36:13.345Z,90.42
2023-01-22T08:41:15.635Z,90.30
2023-01-22T08:46:17.684Z,90.17
2023-01-22T08:51:23.171Z,90.36
2023-01-22T08:56:26.319Z,90.29
2023-01-22T09:01:29.191Z,90.19
2023-01-22T09:06:31.888Z,90.52
2023-01-22T09:11:35.645Z,90.09
2023-01-22T09:16:40.008Z,90.32
2023-01-22T09:21:44.128Z,90.28
2023-01-22T09:26:49.355Z,90.29
2023-01-22T09:31:52.490Z,89.98
2023-01-22T09:36:57.063Z,90.19
2023-01-22T09:42:04.094Z,89.88
2023-01-22T09:47:27.118Z,90.15
2023-01-22T09:52:36.815Z,89.73
2023-01-22T09:57:53.719Z,89.41
2023-01-22T10:03:13.048Z,89.66
2023-01-22T10:08:44.785Z,90.07
2023-01-22T10:13:52.287Z,89.87
2023-01-22T10:19:04.346Z,89.50
2023-01-22T10:24:12.124Z,89.50
2023-01-22T10:29:29.663Z,89.70
2023-01-22T10:34:35.670Z,89.81
2023-01-22T10:39:41.281Z,89.64
2023-01-22T10:44:45.229Z,89.65
2023-01-22T10:50:03.432Z,89.33
2023-01-22T10:55:29.765Z,89.38
2023-01-22T11:00:50.435Z,89.39
2023-01-22T11:06:29.668Z,89.26
2023-01-22T11:11:47.656Z,89.08
2023-01-22T11:16:53.807Z,89.12
2023-01-22T11:21:59.943Z,89.01
2023-01-22T11:27:30.737Z,89.27
2023-01-22T11:33:01.765Z,89.22
2023-01-22T11:38:30.221Z,89.06
2023-01-22T11:43:33.310Z,89.21
2023-01-22T11:48:49.712Z,89.19
2023-01-22T11:54:12.890Z,88.92
2023-01-22T11:59:49.833Z,89.11
2023-01-22T12:05:15.673Z,89.18
2023-01-22T12:10:46.592Z,89.24
2023-01-22T12:16:11.363Z,89.55
2023-01-22T12:21:23.350Z,89.44
2023-01-22T12:26:46.853Z,89.25
2023-01-22T12:32:00.306Z,89.25
2023-01-22T12:37:06.544Z,89.43
2023-01-22T12:42:52.394Z,89.19
2023-01-22T12:48:11.755Z,89.16
2023-01-22T12:53:23.780Z,89.49
2023-01-22T12:58:30.136Z,89.39
2023-01-22T13:03:33.802Z,89.46
2023-01-22T13:08:41.089Z,89.23
2023-01-22T13:13:45.159Z,89.34
2023-01-22T13:18:53.892Z,88.86
2023-01-22T13:24:19.401Z,89.32
2023-01-22T13:29:28.821Z,89.07
2023-01-22T13:34:32.856Z,88.99
2023-01-22T13:39:35.743Z,89.20
2023-01-22T13:44:41.075Z,89.60
2023-01-22T13:49:43.980Z,89.29
2023-01-22T13:55:11.921Z,89.82
2023-01-22T14:00:30.667Z,89.83
2023-01-22T14:05:35.509Z,89.71
2023-01-22T14:10:42.310Z,89.73
2023-01-22T14:15:59.778Z,89.69
2023-01-22T14:21:03.432Z,90.10
2023-01-22T14:26:08.560Z,89.99
2023-01-22T14:31:12.386Z,89.88
2023-01-22T14:36:14.584Z,89.84
2023-01-22T14:41:17.133Z,89.40
2023-01-22T14:46:19.919Z,89.56
2023-01-22T14:51:24.197Z,89.62
2023-01-22T14:56:27.556Z,89.77
2023-01-22T15:01:29.805Z,89.50
2023-01-22T15:06:32.805Z,89.99
2023-01-22T15:11:35.803Z,90.05
2023-01-22T15:16:38.820Z,89.60
2023-01-22T15:21:41.379Z,89.68
2023-01-22T15:26:44.813Z,89.78
2023-01-22T15:31:48.204Z,89.66
2023-01-22T15:36:50.941Z,89.70
2023-01-22T15:41:53.066Z,89.83
2023-01-22T15:47:01.243Z,90.00
2023-01-22T15:52:04.789Z,89.62
2023-01-22T15:57:08.117Z,90.22
2023-01-22T16:02:11.752Z,89.92
2023-01-22T16:07:14.649Z,89.73
2023-01-22T16:12:18.683Z,90.11
2023-01-22T16:17:25.057Z,89.81
2023-01-22T16:22:27.668Z,90.06
2023-01-22T16:27:31.113Z,90.19
2023-01-22T16:32:35.082Z,90.05
2023-01-22T16:37:39.570Z,90.33
2023-01-22T16:42:58.697Z,90.10
2023-01-22T16:48:02.023Z,90.39
2023-01-22T16:53:05.362Z,90.07
2023-01-22T16:58:07.910Z,90.42
2023-01-22T17:03:10.704Z,90.27
2023-01-22T17:08:15.957Z,90.11
2023-01-22T17:13:18.531Z,90.20
2023-01-22T17:18:21.057Z,90.07
2023-01-22T17:23:23.899Z,90.15
2023-01-22T17:28:27.752Z,90.21
2023-01-22T17:33:30.471Z,89.96
2023-01-22T17:38:38.402Z,90.26
2023-01-22T17:43:44.293Z,90.11
2023-01-22T17:48:49.311Z,90.26
2023-01-22T17:53:54.728Z,89.93
2023-01-22T17:59:00.921Z,89.89
2023-01-22T18:04:06.881Z,90.29
2023-01-22T18:09:11.375Z,90.12
2023-01-22T18:14:21.928Z,90.19
2023-01-22T18:19:27.280Z,90.08
2023-01-22T18:24:31.603Z,90.03
2023-01-22T18:29:36.820Z,89.95
2023-01-22T18:34:41.611Z,89.77
2023-01-22T18:39:44.881Z,90.48
2023-01-22T18:44:47.812Z,90.01
2023-01-22T18:49:50.416Z,90.33
2023-01-22T18:54:53.876Z,90.24
2023-01-22T18:59:57.650Z,90.00
2023-01-22T19:05:00.652Z,90.10
2023-01-22T19:10:12.398Z,90.28
2023-01-22T19:15:15.233Z,90.21
2023-01-22T19:20:19.780Z,90.02
2023-01-22T19:25:23.424Z,90.04
2023-01-22T19:30:26.733Z,89.88
2023-01-22T19:35:29.549Z,90.12
2023-01-22T19:40:32.502Z,90.25
2023-01-22T19:45:36.763Z,90.23
2023-01-22T19:50:41.357Z,89.89
2023-01-22T19:55:44.676Z,90.06
2023-01-22T20:00:51.564Z,89.93
2023-01-22T20:05:56.342Z,90.06
2023-01-22T20:11:00.691Z,90.25
2023-01-22T20:16:07.079Z,90.19
2023-01-22T20:21:15.145Z,89.94
2023-01-22T20:26:19.951Z,89.86
2023-01-22T20:31:24.800Z,90.07
2023-01-22T20:36:29.331Z,90.18
2023-01-22T20:41:34.201Z,90.33
2023-01-22T20:46:41.321Z,90.19
2023-01-22T20:51:47.249Z,90.24
2023-01-22T20:56:50.459Z,90.06
2023-01-22T21:01:54.420Z,89.65
2023-01-22T21:06:58.490Z,89.96
2023-01-22T21:12:01.805Z,89.61
2023-01-22T21:17:06.546Z,89.93
2023-01-22T21:22:10.178Z,90.08
2023-01-22T21:27:12.983Z,90.19
2023-01-22T21:32:15.772Z,90.55
2023-01-22T21:37:18.281Z,90.05
2023-01-22T21:42:40.303Z,90.23
2023-01-22T21:47:43.358Z,90.17
2023-01-22T21:52:48.922Z,90.07
2023-01-22T21:57:52.046Z,90.04
2023-01-22T22:02:55.644Z,90.08
2023-01-22T22:07:59.612Z,90.51
2023-01-22T22:13:02.502Z,90.86
2023-01-22T22:18:04.438Z,90.27
2023-01-22T22:23:06.929Z,90.37
2023-01-22T22:28:09.094Z,90.24
2023-01-22T22:33:12.005Z,90.35
2023-01-22T22:38:14.607Z,90.50
2023-01-22T22:43:16.794Z,90.59
2023-01-22T22:48:19.444Z,90.97
2023-01-22T22:53:22.332Z,90.21
2023-01-22T22:58:24.981Z,90.29
2023-01-22T23:03:27.505Z,90.29
2023-01-22T23:08:29.764Z,90.37
2023-01-22T23:13:33.129Z,90.71
2023-01-22T23:18:36.636Z,90.63
2023-01-22T23:23:40.074Z,90.72
2023-01-22T23:28:43.268Z,90.53
2023-01-22T23:33:51.169Z,90.70
2023-01-22T23:38:55.184Z,90.44
2023-01-22T23:43:57.876Z,91.02
2023-01-22T23:49:01.609Z,91.05
2023-01-22T23:54:05.397Z,90.59
2023-01-22T23:59:10.695Z,90.81
